KPGD/PGD METAR and TAF weather

Enter ICAO airport designator
Station Type Date Time Source
KPGD METAR 2019/04/25 11:53 UTC NOAA

KPGD 251153Z 00000KT 10SM CLR 18/17 A3002 RMK AO2 SLP165 T01780172 10183 20156 53018


Station Type Date Time Source
KPGD Decoded METAR 2019/04/25 11:53 UTC NOAA

PUNTA GORDA CHARLOTTE COUNTY, FL, United States (KPGD) 26-55N 82-00W 7M
Apr 25, 2019 - 07:53 AM EDT / 2019.04.25 1153 UTC
Wind: Calm:0
Visibility: 10 mile(s):0
Sky conditions: clear
Temperature: 64.0 F (17.8 C)
Dew Point: 63.0 F (17.2 C)
Relative Humidity: 96%
Pressure (altimeter): 30.02 in. Hg (1016 hPa)
Pressure tendency: 0.05 inches (1.8 hPa) higher than three hours ago
ob: KPGD 251153Z 00000KT 10SM CLR 18/17 A3002 RMK AO2 SLP165 T01780172 10183 20156 53018
cycle: 12

Station Type Date Time Source
KPGD TAF 2019/04/25 12:33 UTC NOAA

TAF KPGD 251131Z 2512/2612 12005KT P6SM SCT250
FM251500 18009KT P6SM FEW030 BKN250
FM251800 23010KT P6SM FEW040 BKN250
FM260300 19005KT P6SM SCT010 BKN250
FM261000 20006KT 6SM BR SCT010 BKN250

Example: see airport list